createdAt,value
2024-04-22T00:00:24.981Z,2.63
2024-04-22T00:01:25.043Z,2.63
2024-04-22T00:02:24.979Z,2.61
2024-04-22T00:03:25.051Z,2.63
2024-04-22T00:04:24.971Z,2.61
2024-04-22T00:05:24.920Z,2.64
2024-04-22T00:06:24.907Z,2.64
2024-04-22T00:07:24.933Z,2.64
2024-04-22T00:08:24.891Z,2.61
2024-04-22T00:09:24.884Z,2.63
2024-04-22T00:10:24.896Z,2.61
2024-04-22T00:11:24.880Z,2.61
2024-04-22T00:12:24.847Z,2.61
2024-04-22T00:13:24.861Z,2.64
2024-04-22T00:14:24.830Z,2.63
2024-04-22T00:15:24.794Z,2.60
2024-04-22T00:16:24.798Z,2.61
2024-04-22T00:17:24.826Z,2.60
2024-04-22T00:18:24.748Z,2.60
2024-04-22T00:19:24.789Z,2.61
2024-04-22T00:20:24.755Z,2.59
2024-04-22T00:21:24.704Z,2.60
2024-04-22T00:22:24.714Z,2.59
2024-04-22T00:23:24.678Z,2.57
2024-04-22T00:24:24.677Z,2.57
2024-04-22T00:25:24.721Z,2.59
2024-04-22T00:26:24.678Z,2.59
2024-04-22T00:27:24.630Z,2.57
2024-04-22T00:28:24.643Z,2.57
2024-04-22T00:29:24.658Z,2.57
2024-04-22T00:30:24.596Z,2.53
2024-04-22T00:31:24.654Z,2.53
2024-04-22T00:32:24.644Z,2.53
2024-04-22T00:33:24.630Z,2.52
2024-04-22T00:34:24.573Z,2.52
2024-04-22T00:35:24.540Z,2.52
2024-04-22T00:36:24.543Z,2.49
2024-04-22T00:37:24.584Z,2.52
2024-04-22T00:38:24.504Z,2.52
2024-04-22T00:39:24.491Z,2.49
2024-04-22T00:40:24.512Z,2.52
2024-04-22T00:41:24.447Z,2.53
2024-04-22T00:42:24.459Z,2.52
2024-04-22T00:43:24.490Z,2.49
2024-04-22T00:44:24.446Z,2.53
2024-04-22T00:45:24.454Z,2.49
2024-04-22T00:46:24.417Z,2.52
2024-04-22T00:47:24.468Z,2.53
2024-04-22T00:48:24.405Z,2.53
2024-04-22T00:49:24.397Z,2.52
2024-04-22T00:50:24.347Z,2.52
2024-04-22T00:51:24.322Z,2.48
2024-04-22T00:52:24.336Z,2.53
2024-04-22T00:53:24.324Z,2.49
2024-04-22T00:54:24.307Z,2.48
2024-04-22T00:55:24.291Z,2.48
2024-04-22T00:56:24.258Z,2.46
2024-04-22T00:57:24.253Z,2.46
2024-04-22T00:58:24.283Z,2.48
2024-04-22T00:59:24.237Z,2.48
2024-04-22T01:00:24.244Z,2.48
2024-04-22T01:01:24.216Z,2.45
2024-04-22T01:02:24.192Z,2.45
2024-04-22T01:03:24.172Z,2.43
2024-04-22T01:04:24.316Z,2.43
2024-04-22T01:05:24.146Z,2.43
2024-04-22T01:06:24.138Z,2.43
2024-04-22T01:07:24.156Z,2.43
2024-04-22T01:08:24.152Z,2.41
2024-04-22T01:09:24.090Z,2.42
2024-04-22T01:10:24.133Z,2.39
2024-04-22T01:11:24.118Z,2.39
2024-04-22T01:12:24.065Z,2.36
2024-04-22T01:13:24.187Z,2.36
2024-04-22T01:14:24.034Z,2.38
2024-04-22T01:15:24.035Z,2.34
2024-04-22T01:16:24.089Z,2.35
2024-04-22T01:17:24.121Z,2.34
2024-04-22T01:18:24.062Z,2.31
2024-04-22T01:19:24.279Z,2.31
2024-04-22T01:20:23.986Z,2.28
2024-04-22T01:21:23.984Z,2.30
2024-04-22T01:22:23.965Z,2.28
2024-04-22T01:23:23.919Z,2.27
2024-04-22T01:24:23.934Z,2.25
2024-04-22T01:25:23.942Z,2.27
2024-04-22T01:26:23.896Z,2.27
2024-04-22T01:27:23.874Z,2.25
2024-04-22T01:28:23.854Z,2.25
2024-04-22T01:29:23.829Z,2.24
2024-04-22T01:30:23.850Z,2.24
2024-04-22T01:31:23.851Z,2.21
2024-04-22T01:32:23.864Z,2.21
2024-04-22T01:33:23.878Z,2.20
2024-04-22T01:34:23.820Z,2.18
2024-04-22T01:35:23.778Z,2.18
2024-04-22T01:36:23.757Z,2.21
2024-04-22T01:37:23.800Z,2.16
2024-04-22T01:38:23.737Z,2.14
2024-04-22T01:39:23.717Z,2.16
2024-04-22T01:40:23.803Z,2.17
2024-04-22T01:41:23.689Z,2.16
2024-04-22T01:42:23.690Z,2.14
2024-04-22T01:43:23.708Z,2.12
2024-04-22T01:44:23.655Z,2.12
2024-04-22T01:45:23.647Z,2.09
2024-04-22T01:46:23.685Z,2.09
2024-04-22T01:47:23.637Z,2.07
2024-04-22T01:48:23.631Z,2.06
2024-04-22T01:49:23.645Z,2.06
2024-04-22T01:50:23.576Z,2.03
2024-04-22T01:51:23.552Z,2.05
2024-04-22T01:52:23.583Z,2.02
2024-04-22T01:53:23.526Z,2.03
2024-04-22T01:54:23.571Z,2.02
2024-04-22T01:55:23.546Z,2.02
2024-04-22T01:56:23.519Z,2.03
2024-04-22T01:57:23.501Z,2.02
2024-04-22T01:58:23.514Z,2.00
2024-04-22T01:59:23.500Z,2.00
2024-04-22T02:00:23.451Z,1.99
2024-04-22T02:01:23.468Z,1.99
2024-04-22T02:02:23.484Z,1.93
2024-04-22T02:03:23.445Z,1.98
2024-04-22T02:04:23.441Z,1.98
2024-04-22T02:05:23.397Z,1.95
2024-04-22T02:06:23.396Z,1.95
2024-04-22T02:07:24.554Z,1.93
2024-04-22T02:08:23.365Z,1.93
2024-04-22T02:09:23.325Z,1.93
2024-04-22T02:10:24.287Z,1.93
2024-04-22T02:11:23.378Z,1.93
2024-04-22T02:12:23.288Z,1.93
2024-04-22T02:13:23.361Z,1.93
2024-04-22T02:14:23.295Z,1.93
2024-04-22T02:15:23.266Z,1.91
2024-04-22T02:16:23.319Z,1.93
2024-04-22T02:17:23.281Z,1.93
2024-04-22T02:18:23.277Z,1.91
2024-04-22T02:19:23.269Z,1.90
2024-04-22T02:20:23.193Z,1.93
2024-04-22T02:21:23.195Z,1.95
2024-04-22T02:22:23.237Z,1.93
2024-04-22T02:23:23.173Z,1.95
2024-04-22T02:24:23.136Z,1.95
2024-04-22T02:25:23.173Z,1.91
2024-04-22T02:26:23.148Z,1.95
2024-04-22T02:27:23.118Z,1.95
2024-04-22T02:28:23.119Z,1.93
2024-04-22T02:29:23.099Z,1.93
2024-04-22T02:30:23.069Z,1.98
2024-04-22T02:31:23.059Z,1.95
2024-04-22T02:32:23.084Z,1.98
2024-04-22T02:33:23.068Z,1.99
2024-04-22T02:34:23.079Z,1.98
2024-04-22T02:35:23.005Z,1.99
2024-04-22T02:36:22.998Z,1.99
2024-04-22T02:37:22.991Z,1.99
2024-04-22T02:38:22.989Z,2.02
2024-04-22T02:39:22.982Z,2.02
2024-04-22T02:40:23.004Z,2.03
2024-04-22T02:41:22.930Z,2.02
2024-04-22T02:42:22.917Z,2.02
2024-04-22T02:43:22.947Z,2.02
2024-04-22T02:44:22.898Z,2.03
2024-04-22T02:45:22.879Z,2.03
2024-04-22T02:46:22.884Z,2.03
2024-04-22T02:47:22.890Z,2.02
2024-04-22T02:48:22.929Z,2.05
2024-04-22T02:49:22.882Z,2.02
2024-04-22T02:50:22.820Z,2.05
2024-04-22T02:51:22.815Z,2.05
2024-04-22T02:52:22.819Z,2.05
2024-04-22T02:53:22.781Z,2.05
2024-04-22T02:54:22.774Z,2.05
2024-04-22T02:55:22.779Z,2.03
2024-04-22T02:56:22.729Z,2.05
2024-04-22T02:57:22.735Z,2.05
2024-04-22T02:58:22.737Z,2.06
2024-04-22T02:59:22.731Z,2.06
2024-04-22T03:00:22.737Z,2.06
2024-04-22T03:01:22.741Z,2.03
2024-04-22T03:02:22.694Z,2.05
2024-04-22T03:03:22.658Z,2.06
2024-04-22T03:04:22.663Z,2.07
2024-04-22T03:05:22.640Z,2.06
2024-04-22T03:06:22.616Z,2.07
2024-04-22T03:07:22.613Z,2.09
2024-04-22T03:08:22.587Z,2.06
2024-04-22T03:09:22.610Z,2.10
2024-04-22T03:10:22.678Z,2.09
2024-04-22T03:11:22.543Z,2.07
2024-04-22T03:12:22.540Z,2.06
2024-04-22T03:13:22.530Z,2.07
2024-04-22T03:14:22.542Z,2.07
2024-04-22T03:15:22.492Z,2.09
2024-04-22T03:16:22.525Z,2.09
2024-04-22T03:17:22.487Z,2.10
2024-04-22T03:18:22.480Z,2.09
2024-04-22T03:19:22.506Z,2.09
2024-04-22T03:20:24.528Z,2.09
2024-04-22T03:21:22.435Z,2.07
2024-04-22T03:22:22.441Z,2.09
2024-04-22T03:23:22.421Z,2.06
2024-04-22T03:24:22.390Z,2.07
2024-04-22T03:25:22.413Z,2.05
2024-04-22T03:26:22.364Z,2.06
2024-04-22T03:27:22.372Z,2.05
2024-04-22T03:28:22.343Z,2.06
2024-04-22T03:29:22.332Z,2.05
2024-04-22T03:30:22.336Z,2.05
2024-04-22T03:31:22.346Z,2.05
2024-04-22T03:32:22.375Z,2.05
2024-04-22T03:33:22.271Z,2.07
2024-04-22T03:34:22.302Z,2.09
2024-04-22T03:35:22.260Z,2.07
2024-04-22T03:36:22.241Z,2.06
2024-04-22T03:37:22.254Z,2.06
2024-04-22T03:38:22.242Z,2.06
2024-04-22T03:39:22.183Z,2.06
2024-04-22T03:40:22.261Z,2.06
2024-04-22T03:41:22.172Z,2.05
2024-04-22T03:42:22.164Z,2.06
2024-04-22T03:43:22.162Z,2.09
2024-04-22T03:44:22.180Z,2.06
2024-04-22T03:45:22.136Z,2.06
2024-04-22T03:46:22.150Z,2.06
2024-04-22T03:47:22.161Z,2.07
2024-04-22T03:48:22.078Z,2.07
2024-04-22T03:49:22.110Z,2.06
2024-04-22T03:50:22.056Z,2.06
2024-04-22T03:51:22.038Z,2.07
2024-04-22T03:52:22.084Z,2.06
2024-04-22T03:53:22.038Z,2.07
2024-04-22T03:54:22.025Z,2.06
2024-04-22T03:55:22.024Z,2.05
2024-04-22T03:56:21.973Z,2.05
2024-04-22T03:57:21.972Z,2.06
2024-04-22T03:58:21.976Z,2.06
2024-04-22T03:59:21.935Z,2.06
2024-04-22T04:00:21.963Z,2.06
2024-04-22T04:01:21.990Z,2.06
2024-04-22T04:02:21.922Z,2.07
2024-04-22T04:03:21.920Z,2.06
2024-04-22T04:04:22.072Z,2.05
2024-04-22T04:05:23.201Z,2.06
2024-04-22T04:06:21.860Z,2.07
2024-04-22T04:07:21.915Z,2.06
2024-04-22T04:08:21.842Z,2.06
2024-04-22T04:09:21.825Z,2.07
2024-04-22T04:10:21.817Z,2.07
2024-04-22T04:11:21.821Z,2.06
2024-04-22T04:12:21.767Z,2.07
2024-04-22T04:13:21.789Z,2.07
2024-04-22T04:14:21.751Z,2.07
2024-04-22T04:15:21.731Z,2.09
2024-04-22T04:16:21.822Z,2.09
2024-04-22T04:17:21.868Z,2.07
2024-04-22T04:18:21.814Z,2.06
2024-04-22T04:19:21.747Z,2.09
2024-04-22T04:20:21.666Z,2.09
2024-04-22T04:21:21.696Z,2.09
2024-04-22T04:22:21.671Z,2.09
2024-04-22T04:23:21.630Z,2.06
2024-04-22T04:24:21.622Z,2.07
2024-04-22T04:25:21.631Z,2.07
2024-04-22T04:26:21.603Z,2.09
2024-04-22T04:27:21.599Z,2.09
2024-04-22T04:28:21.620Z,2.09
2024-04-22T04:29:21.574Z,2.09
2024-04-22T04:30:21.543Z,2.09
2024-04-22T04:31:21.621Z,2.12
2024-04-22T04:32:21.590Z,2.10
2024-04-22T04:33:21.513Z,2.10
2024-04-22T04:34:21.533Z,2.10
2024-04-22T04:35:21.469Z,2.14
2024-04-22T04:36:21.463Z,2.14
2024-04-22T04:37:21.489Z,2.14
2024-04-22T04:38:21.478Z,2.12
2024-04-22T04:39:21.431Z,2.16
2024-04-22T04:40:21.460Z,2.16
2024-04-22T04:41:21.436Z,2.17
2024-04-22T04:42:21.410Z,2.18
2024-04-22T04:43:21.439Z,2.20
2024-04-22T04:44:21.399Z,2.20
2024-04-22T04:45:21.352Z,2.21
2024-04-22T04:46:21.341Z,2.20
2024-04-22T04:47:21.449Z,2.23
2024-04-22T04:48:21.395Z,2.21
2024-04-22T04:49:21.379Z,2.24
2024-04-22T04:50:21.290Z,2.24
2024-04-22T04:51:21.288Z,2.25
2024-04-22T04:52:21.293Z,2.25
2024-04-22T04:53:21.264Z,2.25
2024-04-22T04:54:21.261Z,2.27
2024-04-22T04:55:21.240Z,2.27
2024-04-22T04:56:21.932Z,2.25
2024-04-22T04:57:21.191Z,2.28
2024-04-22T04:58:23.889Z,2.28
2024-04-22T04:59:21.192Z,2.31
2024-04-22T05:00:21.180Z,2.31
2024-04-22T05:01:21.302Z,2.31
2024-04-22T05:02:21.265Z,2.34
2024-04-22T05:03:21.221Z,2.35
2024-04-22T05:04:21.131Z,2.36
2024-04-22T05:05:21.130Z,2.36
2024-04-22T05:06:21.086Z,2.39
2024-04-22T05:07:21.260Z,2.42
2024-04-22T05:08:21.071Z,2.42
2024-04-22T05:09:21.060Z,2.42
2024-04-22T05:10:21.115Z,2.46
2024-04-22T05:11:21.083Z,2.46
2024-04-22T05:12:20.995Z,2.49
2024-04-22T05:13:21.085Z,2.52
2024-04-22T05:14:21.010Z,2.56
2024-04-22T05:15:20.986Z,2.56
2024-04-22T05:16:21.110Z,2.59
2024-04-22T05:17:20.957Z,2.60
2024-04-22T05:18:20.987Z,2.61
2024-04-22T05:19:20.970Z,2.63
2024-04-22T05:20:20.912Z,2.64
2024-04-22T05:21:20.918Z,2.69
2024-04-22T05:22:20.958Z,2.72
2024-04-22T05:23:20.874Z,2.74
2024-04-22T05:24:20.864Z,2.77
2024-04-22T05:25:20.896Z,2.79
2024-04-22T05:26:20.853Z,2.81
2024-04-22T05:27:20.871Z,2.84
2024-04-22T05:28:20.826Z,2.85
2024-04-22T05:29:20.821Z,2.90
2024-04-22T05:30:20.774Z,2.92
2024-04-22T05:31:20.805Z,2.95
2024-04-22T05:32:20.780Z,2.96
2024-04-22T05:33:20.795Z,2.99
2024-04-22T05:34:20.836Z,3.00
2024-04-22T05:35:20.734Z,3.05
2024-04-22T05:36:20.714Z,3.06
2024-04-22T05:37:20.713Z,3.10
2024-04-22T05:38:20.692Z,3.11
2024-04-22T05:39:20.664Z,3.14
2024-04-22T05:40:20.661Z,3.15
2024-04-22T05:41:20.660Z,3.15
2024-04-22T05:42:20.648Z,3.18
2024-04-22T05:43:20.678Z,3.21
2024-04-22T05:44:20.602Z,3.21
2024-04-22T05:45:20.625Z,3.28
2024-04-22T05:46:20.596Z,3.28
2024-04-22T05:47:20.607Z,3.29
2024-04-22T05:48:20.658Z,3.32
2024-04-22T05:49:20.603Z,3.36
2024-04-22T05:50:20.552Z,3.39
2024-04-22T05:51:20.510Z,3.39
2024-04-22T05:52:20.540Z,3.43
2024-04-22T05:53:20.532Z,3.47
2024-04-22T05:54:20.505Z,3.51
2024-04-22T05:55:20.563Z,3.52
2024-04-22T05:56:20.455Z,3.58
2024-04-22T05:57:20.481Z,3.60
2024-04-22T05:58:20.449Z,3.68
2024-04-22T05:59:20.426Z,3.72
2024-04-22T06:00:20.434Z,3.73
2024-04-22T06:01:20.470Z,3.75
2024-04-22T06:02:20.484Z,3.78
2024-04-22T06:03:20.383Z,3.83
2024-04-22T06:04:20.438Z,3.87
2024-04-22T06:05:20.370Z,3.91
2024-04-22T06:06:20.338Z,3.96
2024-04-22T06:07:20.358Z,4.04
2024-04-22T06:08:20.323Z,4.06
2024-04-22T06:09:20.296Z,4.12
2024-04-22T06:10:20.289Z,4.15
2024-04-22T06:11:20.324Z,4.16
2024-04-22T06:12:20.567Z,4.20
2024-04-22T06:13:20.266Z,4.27
2024-04-22T06:14:20.222Z,4.32
2024-04-22T06:15:20.203Z,4.34
2024-04-22T06:16:20.291Z,4.42
2024-04-22T06:17:20.305Z,4.44
2024-04-22T06:18:20.187Z,4.48
2024-04-22T06:19:20.184Z,4.52
2024-04-22T06:20:20.161Z,4.59
2024-04-22T06:21:20.145Z,4.60
2024-04-22T06:22:20.169Z,4.63
2024-04-22T06:23:20.127Z,4.67
2024-04-22T06:24:20.090Z,4.73
2024-04-22T06:25:20.105Z,4.80
2024-04-22T06:26:20.075Z,4.84
2024-04-22T06:27:20.088Z,4.86
2024-04-22T06:28:20.060Z,4.88
2024-04-22T06:29:20.026Z,4.94
2024-04-22T06:30:20.029Z,4.96
2024-04-22T06:31:20.054Z,4.99
2024-04-22T06:32:20.107Z,5.00
2024-04-22T06:33:20.132Z,5.04
2024-04-22T06:34:19.986Z,5.03
2024-04-22T06:35:19.962Z,5.04
2024-04-22T06:36:19.942Z,5.06
2024-04-22T06:37:19.987Z,5.04
2024-04-22T06:38:19.978Z,5.06
2024-04-22T06:39:19.923Z,5.09
2024-04-22T06:40:19.931Z,5.12
2024-04-22T06:41:19.874Z,5.18
2024-04-22T06:42:19.855Z,5.21
2024-04-22T06:43:19.873Z,5.22
2024-04-22T06:44:19.854Z,5.27
2024-04-22T06:45:19.823Z,5.33
2024-04-22T06:46:19.856Z,5.39
2024-04-22T06:47:19.826Z,5.46
2024-04-22T06:48:19.806Z,5.51
2024-04-22T06:49:19.789Z,5.54
2024-04-22T06:50:19.768Z,5.57
2024-04-22T06:51:19.747Z,5.61
2024-04-22T06:52:19.768Z,5.61
2024-04-22T06:53:19.712Z,5.61
2024-04-22T06:54:19.710Z,5.65
2024-04-22T06:55:20.673Z,5.63
2024-04-22T06:56:19.671Z,5.65
2024-04-22T06:57:19.676Z,5.67
2024-04-22T06:58:19.674Z,5.71
2024-04-22T06:59:19.646Z,5.76
2024-04-22T07:00:19.636Z,5.82
2024-04-22T07:01:27.579Z,5.86
2024-04-22T07:02:22.243Z,5.91
2024-04-22T07:03:19.811Z,5.97
2024-04-22T07:04:19.701Z,5.99
2024-04-22T07:05:19.695Z,6.01
2024-04-22T07:06:19.572Z,6.06
2024-04-22T07:07:19.617Z,6.11
2024-04-22T07:08:19.520Z,6.18
2024-04-22T07:09:19.517Z,6.25
2024-04-22T07:10:19.514Z,6.34
2024-04-22T07:11:19.677Z,6.38
2024-04-22T07:12:19.490Z,6.44
2024-04-22T07:13:19.525Z,6.49
2024-04-22T07:14:19.446Z,6.56
2024-04-22T07:15:19.446Z,6.62
2024-04-22T07:16:19.463Z,6.70
2024-04-22T07:17:19.453Z,6.74
2024-04-22T07:18:19.435Z,6.77
2024-04-22T07:19:19.414Z,6.79
2024-04-22T07:20:19.391Z,6.80
2024-04-22T07:21:19.364Z,6.84
2024-04-22T07:22:19.389Z,6.85
2024-04-22T07:23:19.346Z,6.85
2024-04-22T07:24:19.348Z,6.89
2024-04-22T07:25:19.353Z,6.95
2024-04-22T07:26:19.296Z,6.98
2024-04-22T07:28:19.298Z,7.13
2024-04-22T07:29:19.263Z,7.20
2024-04-22T07:30:19.266Z,7.27
2024-04-22T07:31:19.228Z,7.35
2024-04-22T07:32:19.239Z,7.45
2024-04-22T07:33:19.277Z,7.50
2024-04-22T07:34:19.264Z,7.63
2024-04-22T07:35:19.163Z,7.71
2024-04-22T07:36:19.163Z,7.75
2024-04-22T07:37:19.185Z,7.74
2024-04-22T07:38:19.125Z,7.72
2024-04-22T07:39:19.123Z,7.77
2024-04-22T07:40:19.219Z,7.82
2024-04-22T07:41:19.094Z,7.87
2024-04-22T07:42:19.077Z,7.93
2024-04-22T07:43:19.118Z,7.95
2024-04-22T07:44:19.087Z,7.85
2024-04-22T07:45:19.913Z,7.75
2024-04-22T07:46:19.033Z,7.74
2024-04-22T07:47:19.036Z,7.82
2024-04-22T07:48:19.061Z,7.89
2024-04-22T07:49:19.017Z,7.95
2024-04-22T07:50:18.989Z,8.07
2024-04-22T07:51:18.958Z,8.16
2024-04-22T07:52:18.990Z,8.19
2024-04-22T07:53:18.998Z,8.22
2024-04-22T07:54:18.944Z,8.20
2024-04-22T07:55:18.984Z,8.19
2024-04-22T07:56:18.901Z,8.22
2024-04-22T07:57:18.902Z,8.25
2024-04-22T07:58:18.898Z,8.30
2024-04-22T07:59:18.851Z,8.25
2024-04-22T08:00:18.855Z,8.16
2024-04-22T08:01:18.850Z,8.10
2024-04-22T08:02:18.823Z,8.05
2024-04-22T08:03:18.793Z,7.98
2024-04-22T08:04:18.828Z,8.04
2024-04-22T08:05:18.798Z,8.10
2024-04-22T08:06:18.778Z,8.15
2024-04-22T08:07:18.768Z,8.20
2024-04-22T08:08:18.729Z,8.26
2024-04-22T08:09:18.717Z,8.33
2024-04-22T08:10:18.731Z,8.37
2024-04-22T08:11:18.732Z,8.43
2024-04-22T08:12:18.719Z,8.45
2024-04-22T08:13:18.707Z,8.50
2024-04-22T08:14:18.655Z,8.44
2024-04-22T08:15:18.655Z,8.41
2024-04-22T08:16:18.785Z,8.50
2024-04-22T08:17:18.704Z,8.59
2024-04-22T08:18:18.637Z,8.71
2024-04-22T08:19:18.612Z,8.84
2024-04-22T08:20:18.578Z,8.98
2024-04-22T08:21:18.584Z,8.89
2024-04-22T08:22:18.671Z,8.91
2024-04-22T08:23:18.553Z,9.01
2024-04-22T08:24:18.529Z,9.14
2024-04-22T08:25:18.542Z,9.23
2024-04-22T08:26:18.523Z,9.28
2024-04-22T08:27:18.490Z,9.42
2024-04-22T08:28:18.525Z,9.50
2024-04-22T08:29:18.463Z,9.60
2024-04-22T08:30:18.452Z,9.74
2024-04-22T08:31:18.482Z,9.79
2024-04-22T08:32:18.477Z,9.84
2024-04-22T08:33:18.511Z,9.90
2024-04-22T08:34:18.420Z,9.94
2024-04-22T08:35:18.385Z,10.04
2024-04-22T08:36:18.352Z,10.12
2024-04-22T08:37:18.368Z,10.14
2024-04-22T08:38:18.357Z,10.12
2024-04-22T08:39:18.320Z,10.12
2024-04-22T08:40:22.709Z,10.09
2024-04-22T08:41:19.293Z,10.04
2024-04-22T08:42:18.282Z,9.96
2024-04-22T08:43:18.306Z,9.94
2024-04-22T08:44:18.271Z,9.90
2024-04-22T08:45:18.287Z,9.89
2024-04-22T08:46:18.256Z,9.94
2024-04-22T08:47:18.257Z,9.93
2024-04-22T08:48:18.220Z,9.86
2024-04-22T08:49:18.220Z,9.66
2024-04-22T08:50:18.192Z,9.61
2024-04-22T08:51:18.186Z,9.66
2024-04-22T08:52:18.176Z,9.72
2024-04-22T08:53:18.294Z,9.84
2024-04-22T08:54:21.907Z,9.89
2024-04-22T08:55:19.190Z,9.89
2024-04-22T08:56:18.120Z,9.83
2024-04-22T08:57:18.084Z,9.75
2024-04-22T08:58:18.119Z,9.74
2024-04-22T08:59:29.562Z,9.74
2024-04-22T09:00:19.072Z,9.74
2024-04-22T09:01:18.151Z,9.76
2024-04-22T09:02:18.087Z,9.78
2024-04-22T09:03:18.080Z,9.83
2024-04-22T09:04:18.117Z,9.83
2024-04-22T09:05:18.291Z,9.86
2024-04-22T09:06:17.978Z,9.84
2024-04-22T09:07:18.105Z,9.71
2024-04-22T09:08:17.972Z,9.65
2024-04-22T09:09:26.451Z,9.64
2024-04-22T09:10:49.344Z,9.69
2024-04-22T09:12:18.111Z,9.83
2024-04-22T09:13:18.524Z,9.69
2024-04-22T09:14:18.010Z,9.54
2024-04-22T09:15:17.923Z,9.54
2024-04-22T09:16:17.942Z,9.57
2024-04-22T09:17:17.953Z,9.58
2024-04-22T09:18:18.035Z,9.57
2024-04-22T09:19:17.998Z,9.57
2024-04-22T09:20:17.821Z,9.54
2024-04-22T09:21:17.791Z,9.53
2024-04-22T09:22:17.825Z,9.60
2024-04-22T09:23:17.804Z,9.61
2024-04-22T09:24:17.773Z,9.64
2024-04-22T09:25:17.727Z,9.68
2024-04-22T09:26:17.947Z,9.76
2024-04-22T09:27:17.797Z,9.83
2024-04-22T09:28:17.769Z,9.90
2024-04-22T09:29:17.752Z,9.96
2024-04-22T09:30:17.717Z,9.99
2024-04-22T09:31:17.762Z,10.01
2024-04-22T09:32:17.773Z,9.94
2024-04-22T09:33:19.384Z,9.99
2024-04-22T09:34:17.708Z,10.02
2024-04-22T09:35:19.588Z,10.08
2024-04-22T09:36:17.595Z,10.11
2024-04-22T09:37:17.696Z,10.18
2024-04-22T09:39:17.572Z,10.07
2024-04-22T09:40:17.547Z,10.05
2024-04-22T09:41:17.776Z,10.04
2024-04-22T09:42:17.585Z,10.07
2024-04-22T09:43:17.499Z,10.07
2024-04-22T09:44:18.321Z,9.99
2024-04-22T09:45:17.686Z,9.94
2024-04-22T09:46:17.495Z,9.91
2024-04-22T09:47:17.525Z,9.93
2024-04-22T09:48:17.573Z,9.89
2024-04-22T09:49:17.758Z,9.93
2024-04-22T09:50:17.682Z,9.94
2024-04-22T09:51:17.521Z,10.04
2024-04-22T09:52:17.390Z,10.12
2024-04-22T09:53:17.370Z,10.26
2024-04-22T09:54:17.354Z,10.33
2024-04-22T09:55:17.661Z,10.41
2024-04-22T09:56:17.575Z,10.34
2024-04-22T09:57:17.295Z,10.34
2024-04-22T09:58:17.317Z,10.47
2024-04-22T09:59:18.213Z,10.59
2024-04-22T10:00:17.559Z,10.71
2024-04-22T10:01:17.413Z,10.84
2024-04-22T10:02:17.331Z,10.97
2024-04-22T10:03:17.270Z,11.07
2024-04-22T10:04:17.577Z,11.19
2024-04-22T10:05:17.389Z,11.35
2024-04-22T10:06:17.569Z,11.49
2024-04-22T10:07:17.445Z,11.67
2024-04-22T10:08:17.190Z,11.78
2024-04-22T10:09:17.264Z,11.83
2024-04-22T10:10:17.282Z,11.94
2024-04-22T10:11:17.222Z,12.10
2024-04-22T10:12:18.496Z,12.04
2024-04-22T10:13:17.095Z,11.88
2024-04-22T10:14:17.149Z,11.70
2024-04-22T10:15:17.465Z,11.61
2024-04-22T10:16:17.242Z,11.49
2024-04-22T10:17:17.058Z,11.43
2024-04-22T10:18:17.282Z,11.46
2024-04-22T10:19:17.181Z,11.44
2024-04-22T10:20:17.072Z,11.52
2024-04-22T10:21:17.016Z,11.58
2024-04-22T10:22:17.012Z,11.64
2024-04-22T10:23:16.969Z,11.67
2024-04-22T10:24:16.956Z,11.72
2024-04-22T10:25:16.938Z,11.78
2024-04-22T10:26:16.917Z,11.75
2024-04-22T10:27:16.919Z,11.60
2024-04-22T10:28:16.971Z,11.40
2024-04-22T10:29:16.866Z,11.24
2024-04-22T10:30:16.867Z,11.14
2024-04-22T10:31:16.844Z,11.07
2024-04-22T10:32:16.849Z,11.04
2024-04-22T10:33:16.930Z,11.03
2024-04-22T10:34:16.847Z,11.00
2024-04-22T10:35:16.790Z,10.96
2024-04-22T10:36:16.798Z,10.85
2024-04-22T10:37:16.913Z,10.68
2024-04-22T10:38:16.750Z,10.53
2024-04-22T10:39:16.761Z,10.42
2024-04-22T10:40:16.791Z,10.32
2024-04-22T10:41:16.708Z,10.20
2024-04-22T10:42:16.701Z,10.08
2024-04-22T10:43:16.753Z,10.09
2024-04-22T10:44:16.678Z,10.05
2024-04-22T10:45:16.693Z,9.96
2024-04-22T10:46:16.675Z,9.91
2024-04-22T10:47:16.637Z,9.78
2024-04-22T10:48:18.453Z,9.72
2024-04-22T10:49:17.117Z,9.71
2024-04-22T10:50:17.479Z,9.66
2024-04-22T10:51:16.573Z,9.68
2024-04-22T10:52:16.602Z,9.68
2024-04-22T10:53:16.553Z,9.50
2024-04-22T10:54:16.634Z,9.56
2024-04-22T10:55:16.560Z,9.65
2024-04-22T10:56:16.513Z,9.65
2024-04-22T10:57:16.516Z,9.72
2024-04-22T10:58:16.733Z,9.79
2024-04-22T10:59:16.502Z,10.01
2024-04-22T11:00:16.492Z,10.23
2024-04-22T11:01:16.603Z,10.45
2024-04-22T11:02:16.546Z,10.64
2024-04-22T11:03:16.415Z,10.85
2024-04-22T11:04:16.451Z,11.14
2024-04-22T11:05:17.163Z,11.28
2024-04-22T11:06:16.408Z,11.22
2024-04-22T11:07:16.415Z,11.22
2024-04-22T11:08:16.368Z,11.25
2024-04-22T11:09:16.348Z,11.22
2024-04-22T11:10:19.683Z,11.14
2024-04-22T11:11:17.411Z,11.15
2024-04-22T11:12:16.359Z,11.19
2024-04-22T11:13:16.355Z,11.18
2024-04-22T11:14:16.272Z,11.28
2024-04-22T11:15:16.314Z,11.36
2024-04-22T11:16:16.384Z,11.43
2024-04-22T11:17:16.268Z,11.52
2024-04-22T11:18:16.235Z,11.49
2024-04-22T11:19:16.221Z,11.46
2024-04-22T11:20:16.213Z,11.37
2024-04-22T11:21:16.199Z,11.40
2024-04-22T11:22:16.220Z,11.47
2024-04-22T11:23:16.178Z,11.47
2024-04-22T11:24:16.169Z,11.35
2024-04-22T11:25:16.232Z,11.29
2024-04-22T11:26:16.137Z,11.42
2024-04-22T11:27:16.124Z,11.42
2024-04-22T11:28:16.119Z,11.44
2024-04-22T11:29:16.069Z,11.39
2024-04-22T11:30:16.086Z,11.37
2024-04-22T11:31:16.082Z,11.32
2024-04-22T11:32:16.085Z,11.02
2024-04-22T11:33:16.145Z,11.00
2024-04-22T11:34:16.008Z,11.03
2024-04-22T11:35:16.108Z,10.94
2024-04-22T11:36:16.000Z,10.91
2024-04-22T11:37:16.000Z,10.94
2024-04-22T11:38:15.967Z,11.02
2024-04-22T11:39:16.230Z,11.04
2024-04-22T11:40:16.008Z,11.03
2024-04-22T11:41:15.929Z,10.97
2024-04-22T11:42:15.905Z,10.76
2024-04-22T11:43:15.927Z,10.61
2024-04-22T11:44:15.910Z,10.45
2024-04-22T11:45:15.995Z,10.30
2024-04-22T11:46:15.890Z,10.23
2024-04-22T11:47:15.900Z,10.20
2024-04-22T11:48:15.920Z,10.15
2024-04-22T11:49:16.822Z,10.17
2024-04-22T11:50:15.816Z,10.18
2024-04-22T11:51:15.792Z,10.22
2024-04-22T11:52:15.806Z,10.22
2024-04-22T11:53:23.524Z,10.22
2024-04-22T11:54:16.755Z,10.20
2024-04-22T11:55:15.821Z,10.22
2024-04-22T11:56:15.725Z,10.25
2024-04-22T11:57:15.724Z,10.25
2024-04-22T11:58:15.773Z,10.17
2024-04-22T11:59:15.694Z,10.05
2024-04-22T12:00:15.692Z,9.99
2024-04-22T12:01:15.731Z,9.86
2024-04-22T12:02:15.670Z,9.64
2024-04-22T12:03:15.636Z,9.32
2024-04-22T12:04:15.723Z,9.17
2024-04-22T12:05:15.777Z,8.92
2024-04-22T12:06:15.714Z,8.65
2024-04-22T12:07:15.607Z,8.47
2024-04-22T12:08:15.561Z,8.33
2024-04-22T12:09:15.549Z,8.22
2024-04-22T12:10:15.591Z,8.15
2024-04-22T12:11:15.567Z,8.02
2024-04-22T12:12:15.528Z,7.92
2024-04-22T12:13:15.527Z,7.87
2024-04-22T12:14:15.534Z,7.80
2024-04-22T12:15:15.467Z,7.69
2024-04-22T12:16:15.543Z,7.67
2024-04-22T12:17:15.475Z,7.61
2024-04-22T12:18:15.439Z,7.53
2024-04-22T12:19:15.433Z,7.49
2024-04-22T12:20:15.409Z,7.43
2024-04-22T12:21:15.431Z,7.40
2024-04-22T12:22:15.456Z,7.31
2024-04-22T12:23:15.364Z,7.30
2024-04-22T12:24:15.371Z,7.23
2024-04-22T12:25:15.416Z,7.17
2024-04-22T12:26:15.326Z,7.13
2024-04-22T12:27:15.371Z,7.06
2024-04-22T12:28:20.497Z,7.05
2024-04-22T12:29:16.294Z,7.05
2024-04-22T12:30:15.262Z,7.03
2024-04-22T12:31:15.283Z,7.02
2024-04-22T12:32:15.261Z,6.99
2024-04-22T12:33:15.312Z,6.98
2024-04-22T12:34:15.320Z,6.94
2024-04-22T12:35:15.212Z,6.91
2024-04-22T12:36:15.195Z,6.92
2024-04-22T12:37:15.216Z,6.92
2024-04-22T12:38:15.200Z,6.94
2024-04-22T12:39:15.235Z,6.92
2024-04-22T12:40:15.178Z,6.92
2024-04-22T12:41:15.129Z,6.89
2024-04-22T12:42:15.133Z,6.88
2024-04-22T12:43:15.093Z,6.81
2024-04-22T12:44:15.102Z,6.76
2024-04-22T12:45:15.071Z,6.73
2024-04-22T12:46:15.099Z,6.71
2024-04-22T12:47:15.052Z,6.67
2024-04-22T12:48:15.153Z,6.61
2024-04-22T12:49:15.018Z,6.56
2024-04-22T12:50:15.030Z,6.55
2024-04-22T12:51:14.992Z,6.56
2024-04-22T12:52:14.991Z,6.51
2024-04-22T12:53:14.983Z,6.49
2024-04-22T12:54:14.953Z,6.52
2024-04-22T12:55:15.058Z,6.54
2024-04-22T12:56:15.050Z,6.55
2024-04-22T12:57:14.910Z,6.56
2024-04-22T12:58:15.049Z,6.54
2024-04-22T12:59:14.903Z,6.48
2024-04-22T13:00:15.039Z,6.40
2024-04-22T13:01:14.998Z,6.34
2024-04-22T13:02:14.899Z,6.37
2024-04-22T13:03:14.901Z,6.37
2024-04-22T13:04:14.901Z,6.33
2024-04-22T13:05:14.923Z,6.25
2024-04-22T13:06:14.828Z,6.17
2024-04-22T13:07:14.795Z,6.11
2024-04-22T13:08:14.762Z,6.01
2024-04-22T13:09:14.957Z,5.97
2024-04-22T13:10:14.811Z,5.91
2024-04-22T13:11:14.824Z,5.83
2024-04-22T13:12:14.731Z,5.81
2024-04-22T13:13:15.262Z,5.71
2024-04-22T13:14:14.684Z,5.58
2024-04-22T13:15:14.708Z,5.54
2024-04-22T13:16:14.671Z,5.51
2024-04-22T13:17:14.665Z,5.49